Share

Aimwell, LA

9:04 AM CDT on April 24, 2014 (GMT -0500)
Alexandria Esler Regional (KESF) Elev 112 ft | 31.39 °N, 92.30 °W | Change Station

Current weather conditions updated 11 minutes ago

Overcast
Overcast
69 °F
Feels Like 69 °F
N
8
Wind Variable Wind from South
Sunrise 6:29 AM
Sunset 7:43 PM
Moon Waning Crescent

Today is forecast to be nearly the same temperature as yesterday.

Pressure 29.93 in
Visibility 9.0 miles
Clouds Overcast 800 ft
Dew Point 65 °F
Humidity 87%
Rainfall 0.00 in
Snow Depth Not available.
UV 1 out of 16
Pollen 8.40 out of 12
Air Quality Not available.
Flu Activity Local Activity
METAR KESF 241353Z AUTO 19007KT 9SM OVC008 21/18 A2993 RMK AO2 CIG 006V011 SLP134 T02060183

More Conditions Fewer Conditions

Pressure 29.93 in
Visibility 9.0 miles
Clouds Overcast 800 ft
Dew Point 65 °F
Humidity 87%
Rainfall 0.00 in
Snow Depth Not available.
UV 1 out of 16
Pollen 8.40 out of 12
Air Quality Not available.
Flu Activity Local Activity
METAR KESF 241353Z AUTO 19007KT 9SM OVC008 21/18 A2993 RMK AO2 CIG 006V011 SLP134 T02060183

More Conditions Fewer Conditions

10-Day Weather Forecast

Almanac

Astronomy

Apr. 24, 2014 Rise Set
Actual Time 6:29 AM CDT 7:43 PM CDT
Civil Twilight 6:03 AM CDT 8:08 PM CDT
Nautical Twilight 5:33 AM CDT 8:39 PM CDT
Astronomical Twilight 5:02 AM CDT 9:10 PM CDT
Moon 3:22 AM CDT 3:16 PM CDT
Length of Visible Light 14h 04m
Length of Day
13h 13m
Tomorrow will be 1m 45s longer.
Waning Crescent, 25% of the Moon is Illuminated
Today
Waning Crescent
Apr 29
New
May 6
First Quarter
May 14
Full
May 21
Last Quarter

Today's Extremes

State Highs State Lows

Community

  • Clouds mov'n in
    Clouds mov'n in
  • Stacked
    Stacked
  • clouds approaching Red Sox Nation
    clouds approaching Red Sox Nation
  • Balance
    Balance
  • Citysky
    Citysky

WunderPhotos

Upload Photos

1,704,612 photos uploaded!

Nearby

Snow Depth

Station Depth Elevation
No new snow has been reported.

Coastal Water Temperatures

Place Temperature
No Stations Reporting

Earthquake Activity

City Distance Mag. Time & Date
No recent earthquake activity has been reported nearby.
Minimum magnitude displayed is 2.5.

Nearby Weather Stations

Station Location Temp. Dew Point Humidity Wind Precip. Elev Updated Type
MesoWest OLLA , Olla, LA 58 °F - - North  at  - 0.00 in / hr 189 ft 5:20 AM CDT MADIS
MesoWest URANIA , Tullos, LA 58 °F - - North  at  - 0.00 in / hr 111 ft 5:25 AM CDT MADIS
MesoWest GRAYSN , Clarks, LA 56 °F - - North  at  - 0.00 in / hr 178 ft 5:35 AM CDT MADIS
MesoWest VENEER , Georgetown, LA 56 °F - - North  at  - 0.00 in / hr 94 ft 5:45 AM CDT MADIS

Show More Stations Show Fewer Stations

What do you think?

We're not finished. Please let us know what you like, what you don't like, and what you are still missing.